Time;durP1;ratioP1;P1;durP2;ratioP2;P2;SDS_P1;SDS_P2;PMS_P1;PMS_P2;Temp;Humidity;BMP_temperature;BMP_pressure;BME280_temperature;BME280_humidity;BME280_pressure;Samples;Min_cycle;Max_cycle;Signal;HPM_P1;HPM_P2
2023/08/13 00:01:44;;;;;;;2.63;1.80;;;24.50;61.10;;;;;;4869216;28;89318;-88
2023/08/13 00:04:10;;;;;;;3.42;1.98;;;24.50;61.20;;;;;;4871826;28;89616;-88
2023/08/13 00:06:35;;;;;;;3.03;1.65;;;24.50;61.20;;;;;;4874429;28;87661;-89
2023/08/13 00:09:02;;;;;;;4.13;2.22;;;24.50;61.30;;;;;;4872559;28;87253;-88
2023/08/13 00:11:28;;;;;;;2.22;1.73;;;24.50;61.30;;;;;;4870371;28;89086;-88
2023/08/13 00:13:53;;;;;;;3.30;1.80;;;24.40;61.40;;;;;;4869997;28;89755;-88
2023/08/13 00:16:19;;;;;;;3.85;2.10;;;24.50;61.50;;;;;;4872084;28;87717;-90
2023/08/13 00:18:45;;;;;;;2.80;1.85;;;24.50;61.40;;;;;;4872435;28;87350;-88
2023/08/13 00:21:11;;;;;;;3.15;2.13;;;24.50;61.40;;;;;;4873435;28;87144;-88
2023/08/13 00:23:37;;;;;;;3.13;1.83;;;24.40;61.40;;;;;;4874775;28;89030;-88
2023/08/13 00:26:03;;;;;;;2.00;1.70;;;24.40;61.40;;;;;;4870635;28;91469;-89
2023/08/13 00:28:28;;;;;;;2.38;1.88;;;24.40;61.20;;;;;;4870168;28;87605;-89
2023/08/13 00:30:54;;;;;;;2.33;1.58;;;24.40;61.50;;;;;;4873147;28;87923;-88
2023/08/13 00:33:20;;;;;;;2.22;1.73;;;24.40;61.50;;;;;;4871300;28;90197;-87
2023/08/13 00:35:46;;;;;;;3.22;2.08;;;24.40;61.70;;;;;;4871238;28;89133;-89
2023/08/13 00:38:11;;;;;;;3.13;1.95;;;24.40;61.50;;;;;;4870387;28;87581;-88
2023/08/13 00:40:37;;;;;;;3.78;1.67;;;24.40;61.60;;;;;;4871776;28;86883;-89
2023/08/13 00:43:03;;;;;;;2.22;1.60;;;24.40;61.70;;;;;;4872134;28;87324;-87
2023/08/13 00:45:33;;;;;;;2.65;1.90;;;24.40;61.60;;;;;;4870695;28;90253;-89
2023/08/13 00:47:59;;;;;;;3.40;1.77;;;24.40;61.70;;;;;;4870908;28;88786;-89
2023/08/13 00:50:26;;;;;;;2.42;1.70;;;24.40;61.70;;;;;;4871479;28;89422;-88
2023/08/13 00:52:51;;;;;;;2.00;1.70;;;24.40;61.70;;;;;;4875462;28;87801;-89
2023/08/13 00:55:17;;;;;;;2.00;1.50;;;24.40;61.90;;;;;;4876648;28;90141;-88
2023/08/13 00:57:43;;;;;;;2.38;1.48;;;24.40;61.60;;;;;;4874981;28;87792;-88
2023/08/13 01:00:10;;;;;;;2.17;1.95;;;24.40;61.70;;;;;;4872444;28;89708;-88
2023/08/13 01:02:37;;;;;;;2.10;1.80;;;24.40;61.60;;;;;;4870742;28;90814;-89
2023/08/13 01:05:05;;;;;;;1.52;1.30;;;24.40;61.60;;;;;;4871259;28;90022;-89
2023/08/13 01:07:36;;;;;;;2.67;1.73;;;24.30;61.60;;;;;;4872485;28;87098;-87
2023/08/13 01:10:37;;;;;;;1.60;1.48;;;24.40;61.80;;;;;;4872742;28;87147;-89
2023/08/13 01:13:09;;;;;;;2.63;1.80;;;24.40;61.80;;;;;;4835622;29;88576;-89
2023/08/13 01:15:40;;;;;;;2.03;1.60;;;24.40;61.90;;;;;;4865017;28;89049;-88
2023/08/13 01:18:07;;;;;;;2.53;1.67;;;24.40;61.70;;;;;;4872874;28;87462;-87
2023/08/13 01:20:36;;;;;;;2.45;1.88;;;24.30;61.80;;;;;;4870497;28;89091;-90
2023/08/13 01:23:02;;;;;;;3.78;2.03;;;24.30;61.60;;;;;;4869236;28;90863;-89
2023/08/13 01:25:28;;;;;;;1.60;1.50;;;24.30;61.80;;;;;;4871174;28;87683;-88
2023/08/13 01:28:22;;;;;;;1.92;1.75;;;24.30;61.90;;;;;;4872712;28;88222;-89
2023/08/13 01:31:11;;;;;;;2.05;1.67;;;24.30;62.20;;;;;;4904746;28;89988;-88
2023/08/13 01:33:39;;;;;;;1.80;1.50;;;24.30;62.00;;;;;;4874192;28;88737;-87
2023/08/13 01:36:05;;;;;;;1.92;1.73;;;24.30;62.10;;;;;;4871109;28;88473;-88
2023/08/13 01:38:31;;;;;;;1.80;1.65;;;24.30;62.20;;;;;;4871661;28;88226;-89
2023/08/13 01:41:00;;;;;;;1.92;1.40;;;24.30;62.10;;;;;;4872072;28;86957;-89
2023/08/13 01:43:26;;;;;;;1.88;1.52;;;24.30;62.00;;;;;;4869902;28;90543;-90
2023/08/13 01:45:52;;;;;;;3.30;1.70;;;24.30;62.00;;;;;;4872054;28;87748;-88
2023/08/13 01:48:18;;;;;;;2.47;1.92;;;24.30;62.00;;;;;;4870464;28;87640;-88
2023/08/13 01:50:43;;;;;;;2.50;1.70;;;24.30;61.90;;;;;;4872674;28;87190;-89
2023/08/13 01:53:09;;;;;;;2.25;1.70;;;24.30;62.00;;;;;;4870247;28;89971;-87
2023/08/13 01:55:35;;;;;;;1.58;1.45;;;24.30;62.00;;;;;;4872938;28;87866;-88
2023/08/13 01:58:00;;;;;;;2.67;1.85;;;24.30;62.20;;;;;;4868922;28;87557;-87
2023/08/13 02:00:26;;;;;;;2.08;1.67;;;24.30;62.10;;;;;;4870246;28;88227;-89
2023/08/13 02:02:52;;;;;;;1.80;1.45;;;24.30;62.10;;;;;;4869233;28;91853;-89
2023/08/13 02:05:17;;;;;;;2.45;1.75;;;24.30;62.00;;;;;;4869667;28;89962;-89
2023/08/13 02:07:43;;;;;;;2.70;1.77;;;24.30;62.00;;;;;;4870428;28;87193;-88
2023/08/13 02:10:09;;;;;;;2.75;1.70;;;24.30;62.00;;;;;;4869526;28;94246;-89
2023/08/13 02:12:35;;;;;;;2.33;1.67;;;24.30;62.10;;;;;;4869389;28;90707;-88
2023/08/13 02:15:00;;;;;;;2.65;1.73;;;24.30;62.10;;;;;;4874187;28;89332;-88
2023/08/13 02:17:26;;;;;;;1.83;1.67;;;24.30;62.30;;;;;;4872360;28;87978;-89
2023/08/13 02:19:52;;;;;;;1.50;1.40;;;24.30;62.10;;;;;;4874619;28;87097;-89
2023/08/13 02:22:17;;;;;;;2.55;1.70;;;24.30;62.20;;;;;;4870156;28;89563;-88
2023/08/13 02:24:43;;;;;;;2.85;1.60;;;24.20;62.10;;;;;;4870239;28;87601;-88
2023/08/13 02:27:08;;;;;;;2.97;1.85;;;24.30;62.20;;;;;;4870238;28;88293;-88
2023/08/13 02:29:34;;;;;;;2.10;1.52;;;24.20;62.10;;;;;;4902015;28;88238;-88
2023/08/13 02:32:00;;;;;;;2.90;1.85;;;24.20;62.20;;;;;;4870664;28;90539;-88
2023/08/13 02:34:26;;;;;;;2.05;1.50;;;24.30;62.30;;;;;;4868897;28;89624;-89
2023/08/13 02:36:51;;;;;;;1.88;1.65;;;24.20;62.20;;;;;;4871318;28;87598;-88
2023/08/13 02:39:17;;;;;;;2.08;1.50;;;24.20;62.30;;;;;;4900521;28;88722;-89
2023/08/13 02:41:43;;;;;;;2.15;1.67;;;24.20;62.10;;;;;;4902032;28;90686;-90
2023/08/13 02:44:09;;;;;;;2.60;1.38;;;24.20;62.20;;;;;;4869639;28;89437;-88
2023/08/13 02:46:35;;;;;;;2.22;1.77;;;24.20;62.30;;;;;;4868983;28;87375;-90
2023/08/13 02:49:00;;;;;;;1.30;1.20;;;24.20;62.40;;;;;;4871279;28;87395;-88
2023/08/13 02:51:26;;;;;;;2.20;1.60;;;24.20;62.40;;;;;;4868588;28;92708;-89
2023/08/13 02:53:52;;;;;;;1.80;1.55;;;24.20;62.50;;;;;;4901232;28;91064;-88
2023/08/13 02:56:18;;;;;;;1.83;1.50;;;24.20;62.40;;;;;;4871718;28;87334;-89
2023/08/13 02:58:44;;;;;;;1.70;1.40;;;24.20;62.50;;;;;;4872861;28;87487;-88
2023/08/13 03:01:10;;;;;;;2.08;1.73;;;24.20;62.50;;;;;;4873091;28;87586;-88
2023/08/13 03:03:36;;;;;;;2.10;1.45;;;24.20;62.50;;;;;;4872370;28;89884;-89
2023/08/13 03:06:02;;;;;;;1.60;1.50;;;24.20;62.40;;;;;;4873981;28;87664;-88
2023/08/13 03:08:27;;;;;;;2.08;1.52;;;24.20;62.30;;;;;;4870881;28;86872;-89
2023/08/13 03:10:53;;;;;;;1.50;1.40;;;24.20;62.40;;;;;;4868269;28;90896;-89
2023/08/13 03:13:19;;;;;;;1.90;1.60;;;24.20;62.40;;;;;;4869334;28;93054;-89
2023/08/13 03:15:44;;;;;;;2.40;1.80;;;24.20;62.40;;;;;;4868731;28;88648;-89
2023/08/13 03:18:10;;;;;;;1.65;1.48;;;24.20;62.50;;;;;;4870398;28;87881;-89
2023/08/13 03:20:36;;;;;;;1.98;1.40;;;24.20;62.50;;;;;;4870974;28;87721;-88
2023/08/13 03:23:04;;;;;;;2.75;1.52;;;24.20;62.60;;;;;;4871050;28;90952;-88
2023/08/13 03:25:30;;;;;;;2.13;1.60;;;24.10;62.50;;;;;;4873288;28;87772;-90
2023/08/13 03:27:55;;;;;;;2.63;1.85;;;24.20;63.40;;;;;;4873853;28;87456;-88
2023/08/13 03:30:21;;;;;;;2.47;1.70;;;24.20;62.60;;;;;;4870865;28;89482;-88
2023/08/13 03:32:47;;;;;;;2.22;1.75;;;24.10;62.60;;;;;;4872589;28;86830;-88
2023/08/13 03:35:12;;;;;;;3.05;1.85;;;24.10;62.50;;;;;;4871907;28;87759;-89
2023/08/13 03:37:38;;;;;;;1.85;1.50;;;24.10;62.60;;;;;;4870712;28;87931;-87
2023/08/13 03:40:05;;;;;;;1.73;1.40;;;24.10;62.60;;;;;;4902692;28;91597;-89
2023/08/13 03:42:31;;;;;;;1.63;1.40;;;24.20;62.60;;;;;;4872281;28;89713;-87
2023/08/13 03:45:00;;;;;;;1.90;1.60;;;24.10;62.60;;;;;;4873864;28;87785;-87
2023/08/13 03:47:26;;;;;;;1.50;1.40;;;24.10;62.60;;;;;;4876995;28;87324;-89
2023/08/13 03:49:52;;;;;;;1.70;1.38;;;24.10;62.50;;;;;;4872805;28;89160;-89
2023/08/13 03:52:17;;;;;;;1.67;1.35;;;24.10;62.40;;;;;;4874523;28;89823;-89
2023/08/13 03:54:43;;;;;;;3.80;1.70;;;24.10;62.60;;;;;;4877138;28;88085;-87
2023/08/13 03:57:08;;;;;;;2.25;1.60;;;24.10;62.60;;;;;;4874528;28;86594;-88
2023/08/13 03:59:34;;;;;;;1.50;1.40;;;24.10;62.60;;;;;;4876552;28;89406;-90
2023/08/13 04:02:00;;;;;;;1.60;1.42;;;24.10;62.70;;;;;;4873175;28;89643;-90
2023/08/13 04:04:26;;;;;;;3.45;1.85;;;24.10;62.70;;;;;;4903924;28;88329;-89
2023/08/13 04:06:52;;;;;;;2.55;1.65;;;24.10;62.80;;;;;;4871241;28;89314;-89
2023/08/13 04:09:17;;;;;;;1.50;1.27;;;24.10;62.80;;;;;;4877129;28;88333;-84
2023/08/13 04:11:43;;;;;;;1.40;1.30;;;24.10;62.70;;;;;;4874550;28;90820;-89
2023/08/13 04:14:09;;;;;;;1.50;1.38;;;24.10;62.40;;;;;;4872750;28;87908;-88
2023/08/13 04:16:34;;;;;;;1.60;1.30;;;24.10;62.70;;;;;;4873518;28;87613;-89
2023/08/13 04:19:00;;;;;;;1.95;1.67;;;24.10;62.60;;;;;;4906010;28;91050;-88
2023/08/13 04:21:26;;;;;;;1.95;1.60;;;24.10;62.60;;;;;;4872558;28;90338;-90
2023/08/13 04:23:56;;;;;;;1.73;1.52;;;24.10;62.70;;;;;;4872786;28;87738;-89
2023/08/13 04:26:22;;;;;;;2.08;1.50;;;24.10;62.90;;;;;;4873563;28;87852;-88
2023/08/13 04:28:47;;;;;;;1.50;1.40;;;24.00;62.80;;;;;;4872542;28;89116;-90
2023/08/13 04:31:13;;;;;;;1.58;1.40;;;24.10;63.00;;;;;;4901605;28;91480;-87
2023/08/13 04:33:39;;;;;;;1.58;1.48;;;24.10;62.70;;;;;;4872117;28;87687;-90
2023/08/13 04:36:04;;;;;;;2.33;1.48;;;24.00;62.80;;;;;;4870405;28;89542;-88
2023/08/13 04:38:30;;;;;;;2.13;1.50;;;24.00;63.20;;;;;;4871915;28;90065;-89
2023/08/13 04:40:56;;;;;;;1.40;1.30;;;24.10;63.20;;;;;;4903037;28;90162;-89
2023/08/13 04:43:21;;;;;;;1.40;1.30;;;24.00;63.00;;;;;;4873425;28;88099;-90
2023/08/13 04:45:47;;;;;;;1.50;1.38;;;24.00;63.10;;;;;;4875087;28;87052;-88
2023/08/13 04:48:39;;;;;;;2.38;1.55;;;24.00;63.10;;;;;;4875373;28;87686;-88
2023/08/13 04:51:05;;;;;;;1.65;1.55;;;24.00;63.10;;;;;;4869041;28;86890;-88
2023/08/13 04:53:31;;;;;;;2.20;1.50;;;24.00;63.30;;;;;;4869787;28;88440;-88
2023/08/13 04:55:56;;;;;;;1.50;1.40;;;24.00;63.30;;;;;;4872530;28;87182;-89
2023/08/13 04:58:22;;;;;;;1.48;1.38;;;24.00;63.30;;;;;;4874437;28;87551;-87
2023/08/13 05:00:47;;;;;;;1.48;1.38;;;24.00;63.40;;;;;;4875229;28;88361;-89
2023/08/13 05:03:13;;;;;;;2.55;1.52;;;24.00;63.30;;;;;;4875554;28;87241;-89
2023/08/13 05:05:39;;;;;;;1.33;1.23;;;24.00;63.20;;;;;;4876029;28;88301;-88
2023/08/13 05:08:04;;;;;;;1.92;1.63;;;24.00;63.10;;;;;;4870558;28;88722;-87
2023/08/13 05:10:32;;;;;;;1.52;1.23;;;24.00;63.20;;;;;;4871624;28;88628;-91
2023/08/13 05:12:58;;;;;;;1.50;1.40;;;24.00;63.30;;;;;;4872082;28;87498;-91
2023/08/13 05:15:24;;;;;;;1.60;1.38;;;24.00;63.20;;;;;;4874270;28;88734;-91
2023/08/13 05:17:49;;;;;;;1.55;1.45;;;24.00;63.30;;;;;;4873724;28;90962;-91
2023/08/13 05:20:15;;;;;;;1.60;1.40;;;24.00;63.30;;;;;;4874889;28;91754;-91
2023/08/13 05:22:41;;;;;;;1.48;1.30;;;24.00;63.30;;;;;;4873611;28;87903;-91
2023/08/13 05:25:07;;;;;;;1.50;1.40;;;24.00;63.40;;;;;;4873300;28;87102;-92
2023/08/13 05:27:32;;;;;;;1.80;1.20;;;24.00;63.10;;;;;;4870621;28;91058;-91
2023/08/13 05:29:58;;;;;;;1.70;1.30;;;24.00;63.40;;;;;;4874631;28;87959;-88
2023/08/13 05:32:24;;;;;;;1.50;1.40;;;24.00;63.30;;;;;;4871690;28;90702;-91
2023/08/13 05:34:50;;;;;;;1.63;1.38;;;24.00;63.40;;;;;;4906492;28;88169;-90
2023/08/13 05:37:15;;;;;;;1.83;1.30;;;24.00;63.40;;;;;;4875755;28;87119;-92
2023/08/13 05:39:41;;;;;;;1.80;1.50;;;24.00;63.40;;;;;;4874160;28;90532;-92
2023/08/13 05:42:07;;;;;;;1.40;1.30;;;24.00;63.40;;;;;;4874604;28;89054;-91
2023/08/13 05:44:32;;;;;;;1.25;1.10;;;24.00;63.30;;;;;;4871313;28;88984;-92
2023/08/13 05:46:58;;;;;;;2.80;1.40;;;24.00;63.40;;;;;;4875651;28;88186;-91
2023/08/13 05:49:23;;;;;;;1.65;1.52;;;24.00;63.30;;;;;;4872267;28;88097;-91
2023/08/13 05:51:49;;;;;;;2.65;1.92;;;24.00;63.40;;;;;;4872828;28;87414;-91
2023/08/13 05:54:15;;;;;;;1.55;1.20;;;24.10;63.30;;;;;;4906021;28;88543;-92
2023/08/13 05:56:42;;;;;;;2.03;1.40;;;24.10;63.20;;;;;;4903931;28;87954;-92
2023/08/13 05:59:08;;;;;;;1.50;1.40;;;24.00;63.20;;;;;;4870629;28;88704;-91
2023/08/13 06:01:34;;;;;;;1.50;1.30;;;24.00;63.30;;;;;;4868599;28;88432;-91
2023/08/13 06:04:00;;;;;;;2.17;1.42;;;24.00;63.20;;;;;;4873381;28;87750;-90
2023/08/13 06:06:25;;;;;;;1.75;1.33;;;24.00;63.20;;;;;;4906808;28;91716;-91
2023/08/13 06:08:51;;;;;;;1.42;1.33;;;24.00;63.30;;;;;;4875423;28;88702;-95
2023/08/13 06:11:17;;;;;;;1.50;1.25;;;24.10;63.00;;;;;;4876005;28;87774;-96
2023/08/13 06:13:43;;;;;;;1.38;1.27;;;24.10;62.80;;;;;;4878287;28;88174;-95
2023/08/13 06:16:08;;;;;;;1.80;1.40;;;24.10;62.20;;;;;;4878418;28;89041;-95
2023/08/13 06:18:34;;;;;;;2.92;1.35;;;24.00;61.10;;;;;;4877537;28;89864;-95
2023/08/13 06:21:02;;;;;;;3.50;1.67;;;24.00;61.30;;;;;;4877295;28;87396;-92
2023/08/13 06:23:28;;;;;;;5.03;2.00;;;24.00;61.20;;;;;;4872244;28;89394;-91
2023/08/13 06:25:54;;;;;;;4.10;1.65;;;24.00;61.30;;;;;;4872709;28;90771;-93
2023/08/13 06:28:28;;;;;;;3.55;1.88;;;24.10;60.90;;;;;;4878464;28;87646;-93
2023/08/13 06:30:53;;;;;;;2.88;1.90;;;24.10;60.90;;;;;;4875008;28;88259;-94
2023/08/13 06:33:19;;;;;;;2.22;1.50;;;24.20;61.30;;;;;;4876782;28;88418;-93
2023/08/13 06:35:48;;;;;;;2.97;1.60;;;24.20;61.50;;;;;;4874268;28;90916;-95
2023/08/13 06:38:14;;;;;;;4.78;2.15;;;24.10;61.50;;;;;;4875801;28;89850;-92
2023/08/13 06:40:53;;;;;;;4.97;2.33;;;24.20;61.50;;;;;;4874971;28;87193;-94
2023/08/13 06:43:21;;;;;;;8.00;2.57;;;24.30;60.60;;;;;;4871921;28;87824;-95
2023/08/13 06:45:47;;;;;;;8.87;2.70;;;24.20;58.70;;;;;;4875887;28;90644;-94
2023/08/13 06:48:12;;;;;;;10.25;3.03;;;24.20;58.10;;;;;;4877836;28;87830;-92
2023/08/13 06:50:38;;;;;;;14.13;2.83;;;24.10;58.40;;;;;;4872948;28;88377;-92
2023/08/13 06:53:04;;;;;;;6.85;2.90;;;24.20;58.10;;;;;;4872115;28;89518;-90
2023/08/13 06:55:30;;;;;;;9.38;2.83;;;24.20;57.90;;;;;;4874003;28;91024;-91
2023/08/13 06:57:55;;;;;;;7.47;2.20;;;24.20;57.70;;;;;;4876933;28;88852;-92
2023/08/13 07:00:21;;;;;;;7.97;2.40;;;24.10;57.50;;;;;;4871573;28;87882;-93
2023/08/13 07:02:48;;;;;;;6.88;2.75;;;24.10;57.70;;;;;;4872120;28;88505;-93
2023/08/13 07:05:16;;;;;;;4.88;2.20;;;24.10;58.40;;;;;;4872207;28;90513;-92
2023/08/13 07:07:42;;;;;;;9.13;2.80;;;24.00;57.90;;;;;;4876080;28;90200;-92
2023/08/13 07:10:08;;;;;;;44.47;8.27;;;24.00;58.00;;;;;;4877103;28;87016;-94
2023/08/13 07:13:30;;;;;;;;;;;;;;;;;;;;;
2023/08/13 07:15:51;;;;;;;92.10;20.30;;;24.00;58.40;;;;;;4878117;28;89873;-96
2023/08/13 07:18:17;;;;;;;65.03;12.65;;;24.00;58.40;;;;;;4879451;28;90914;-95
2023/08/13 07:20:42;;;;;;;42.17;9.35;;;24.00;58.40;;;;;;4881352;28;88314;-93
2023/08/13 07:23:35;;;;;;;22.75;6.68;;;24.00;58.50;;;;;;4878149;28;88053;-93
2023/08/13 07:26:00;;;;;;;13.68;4.82;;;24.00;58.60;;;;;;4877189;28;89426;-94
2023/08/13 07:28:26;;;;;;;13.18;4.07;;;24.10;58.50;;;;;;4876843;28;90106;-94
2023/08/13 07:30:52;;;;;;;13.80;3.55;;;24.00;58.50;;;;;;4877327;28;87726;-94
2023/08/13 07:33:17;;;;;;;18.85;4.22;;;24.00;58.90;;;;;;4876856;28;89165;-93
2023/08/13 07:35:43;;;;;;;9.18;3.75;;;24.00;59.20;;;;;;4877782;28;90282;-94
2023/08/13 07:38:38;;;;;;;23.30;4.47;;;24.00;59.90;;;;;;4878419;28;88852;-94
2023/08/13 07:41:05;;;;;;;10.40;3.20;;;24.00;60.70;;;;;;4859833;28;87401;-92
2023/08/13 07:43:31;;;;;;;12.60;4.25;;;24.00;60.50;;;;;;4862849;28;87944;-92
2023/08/13 07:45:58;;;;;;;12.45;4.10;;;24.10;60.80;;;;;;4862159;28;90705;-92
2023/08/13 07:48:23;;;;;;;10.95;3.28;;;24.10;61.10;;;;;;4864384;28;90984;-92
2023/08/13 07:50:50;;;;;;;15.23;3.85;;;24.20;61.10;;;;;;4874648;28;87688;-91
2023/08/13 07:53:16;;;;;;;10.32;3.53;;;24.10;60.90;;;;;;4906432;28;88484;-94
2023/08/13 07:55:42;;;;;;;10.60;3.70;;;24.20;60.50;;;;;;4878574;28;88559;-93
2023/08/13 07:58:08;;;;;;;7.65;2.80;;;24.20;60.40;;;;;;4878296;28;88379;-91
2023/08/13 08:00:34;;;;;;;6.70;3.03;;;24.20;60.20;;;;;;4876045;28;87396;-94
2023/08/13 08:02:59;;;;;;;9.52;2.80;;;24.20;60.70;;;;;;4880490;28;86926;-94
2023/08/13 08:05:25;;;;;;;7.72;2.92;;;24.10;60.80;;;;;;4876845;28;87551;-92
2023/08/13 08:07:50;;;;;;;9.43;2.92;;;24.10;61.10;;;;;;4879650;28;87827;-89
2023/08/13 08:10:16;;;;;;;11.27;3.58;;;24.10;61.10;;;;;;4875997;28;88492;-86
2023/08/13 08:12:42;;;;;;;9.93;3.22;;;24.10;61.10;;;;;;4879507;28;88031;-90
2023/08/13 08:15:07;;;;;;;9.43;3.00;;;24.10;61.10;;;;;;4876775;28;90650;-90
2023/08/13 08:17:35;;;;;;;8.02;2.97;;;24.10;60.80;;;;;;4876730;28;91425;-91
2023/08/13 08:20:00;;;;;;;14.05;3.85;;;24.10;60.80;;;;;;4877107;28;87480;-89
2023/08/13 08:22:26;;;;;;;10.23;3.20;;;24.10;60.60;;;;;;4876853;28;87267;-91
2023/08/13 08:24:54;;;;;;;11.55;3.63;;;24.10;60.70;;;;;;4874348;28;88506;-92
2023/08/13 08:27:20;;;;;;;8.82;3.17;;;24.20;60.70;;;;;;4873838;28;89593;-92
2023/08/13 08:29:45;;;;;;;11.15;3.40;;;24.20;60.80;;;;;;4875195;28;87491;-91
2023/08/13 08:32:11;;;;;;;8.38;3.20;;;24.20;61.00;;;;;;4876572;28;87624;-91
2023/08/13 08:34:37;;;;;;;8.35;3.00;;;24.20;61.10;;;;;;4877548;28;89051;-93
2023/08/13 08:37:04;;;;;;;7.18;2.80;;;24.20;61.00;;;;;;4875214;28;90919;-90
2023/08/13 08:39:30;;;;;;;10.63;3.83;;;24.20;60.90;;;;;;4877650;28;87807;-90
2023/08/13 08:41:57;;;;;;;14.05;3.17;;;24.20;60.90;;;;;;4877480;28;87452;-91
2023/08/13 08:44:23;;;;;;;7.65;3.05;;;24.20;61.20;;;;;;4877537;28;88300;-92
2023/08/13 08:46:50;;;;;;;9.82;3.13;;;24.20;61.40;;;;;;4873297;28;89647;-90
2023/08/13 08:49:17;;;;;;;6.95;3.20;;;24.20;61.40;;;;;;4875586;28;87488;-92
2023/08/13 08:51:45;;;;;;;11.32;2.85;;;24.20;61.00;;;;;;4877658;28;86715;-91
2023/08/13 08:54:11;;;;;;;12.07;3.00;;;24.30;61.20;;;;;;4876578;28;90641;-92
2023/08/13 08:56:37;;;;;;;6.88;2.65;;;24.30;61.10;;;;;;4879153;28;88927;-92
2023/08/13 08:59:02;;;;;;;7.15;3.20;;;24.30;61.00;;;;;;4877080;28;88344;-88
2023/08/13 09:01:28;;;;;;;8.07;2.47;;;24.30;61.00;;;;;;4874435;28;87352;-93
2023/08/13 09:03:54;;;;;;;4.45;2.42;;;24.40;60.80;;;;;;4875824;28;88138;-89
2023/08/13 09:06:20;;;;;;;7.88;3.20;;;24.40;60.50;;;;;;4906140;28;90153;-92
2023/08/13 09:08:46;;;;;;;6.97;2.90;;;24.40;60.30;;;;;;4878398;28;87188;-92
2023/08/13 09:11:11;;;;;;;4.28;2.35;;;24.40;60.20;;;;;;4876778;28;87663;-93
2023/08/13 09:13:50;;;;;;;9.30;3.03;;;24.40;60.60;;;;;;4874008;28;90706;-93
2023/08/13 09:16:16;;;;;;;9.13;3.30;;;24.40;60.40;;;;;;4873138;28;90446;-91
2023/08/13 09:18:41;;;;;;;7.50;2.60;;;24.40;60.40;;;;;;4874359;28;87034;-94
2023/08/13 09:21:09;;;;;;;7.28;2.20;;;24.30;60.30;;;;;;4876569;28;89273;-92
2023/08/13 09:23:38;;;;;;;8.95;2.90;;;24.30;59.90;;;;;;4878747;28;90184;-92
2023/08/13 09:26:05;;;;;;;6.43;2.60;;;24.40;60.20;;;;;;4876955;28;88636;-93
2023/08/13 09:28:30;;;;;;;4.95;2.30;;;24.40;60.20;;;;;;4871299;28;87616;-95
2023/08/13 09:30:57;;;;;;;9.05;2.95;;;24.40;60.00;;;;;;4876001;28;87341;-91
2023/08/13 09:33:23;;;;;;;8.73;3.10;;;24.40;59.70;;;;;;4872063;28;90118;-92
2023/08/13 09:35:49;;;;;;;8.73;3.45;;;24.40;59.90;;;;;;4872099;28;90931;-92
2023/08/13 09:38:14;;;;;;;13.98;3.50;;;24.40;60.10;;;;;;4874533;28;87167;-92
2023/08/13 09:40:41;;;;;;;21.65;3.97;;;24.40;59.90;;;;;;4873499;28;87204;-92
2023/08/13 09:43:09;;;;;;;16.33;3.92;;;24.40;60.00;;;;;;4872151;28;89544;-91
2023/08/13 09:45:35;;;;;;;11.63;4.75;;;24.40;60.40;;;;;;4874262;28;90197;-91
2023/08/13 09:48:06;;;;;;;13.50;4.40;;;24.40;60.60;;;;;;4875694;28;88551;-94
2023/08/13 09:50:41;;;;;;;18.02;5.18;;;24.40;60.90;;;;;;4875963;28;92240;-90
2023/08/13 09:53:12;;;;;;;23.55;6.60;;;24.50;61.10;;;;;;4874540;28;89508;-91
2023/08/13 09:55:53;;;;;;;41.65;12.90;;;24.50;60.90;;;;;;4873218;28;90379;-91
2023/08/13 09:58:19;;;;;;;37.75;10.60;;;24.60;61.20;;;;;;4875391;28;87162;-89
2023/08/13 10:00:45;;;;;;;53.30;14.98;;;24.60;59.50;;;;;;4875747;28;89189;-92
2023/08/13 10:03:12;;;;;;;67.22;15.73;;;24.60;59.80;;;;;;4875580;28;88503;-90
2023/08/13 10:05:38;;;;;;;56.85;16.08;;;24.50;60.70;;;;;;4874576;28;90259;-93
2023/08/13 10:08:06;;;;;;;61.30;17.75;;;24.50;60.30;;;;;;4874338;28;93574;-91
2023/08/13 10:10:31;;;;;;;56.22;13.80;;;24.50;60.00;;;;;;4873853;28;88619;-89
2023/08/13 10:12:57;;;;;;;44.55;14.52;;;24.60;59.50;;;;;;4870943;28;89071;-94
2023/08/13 10:15:24;;;;;;;55.50;15.88;;;24.50;59.70;;;;;;4873378;28;88761;-92
2023/08/13 10:17:49;;;;;;;55.65;15.07;;;24.60;60.00;;;;;;4872584;28;87932;-92
2023/08/13 10:20:18;;;;;;;53.50;13.48;;;24.50;59.80;;;;;;4872254;28;87148;-91
2023/08/13 10:22:45;;;;;;;47.60;14.50;;;24.50;59.70;;;;;;4874203;28;88101;-92
2023/08/13 10:25:28;;;;;;;51.58;15.60;;;24.50;59.80;;;;;;4875304;28;88118;-90
2023/08/13 10:27:55;;;;;;;43.65;13.20;;;24.50;59.90;;;;;;4889996;28;89429;-91
2023/08/13 10:30:24;;;;;;;38.45;12.93;;;24.60;59.40;;;;;;4875753;28;88170;-93
2023/08/13 10:33:00;;;;;;;35.90;11.60;;;24.60;59.60;;;;;;4875932;28;90097;-93
2023/08/13 10:35:34;;;;;;;32.25;10.45;;;24.60;59.50;;;;;;4871730;28;90563;-92
2023/08/13 10:38:02;;;;;;;37.22;11.52;;;24.50;59.40;;;;;;4871409;28;88349;-95
2023/08/13 10:40:28;;;;;;;39.45;11.98;;;24.50;59.60;;;;;;4871750;28;89513;-91
2023/08/13 10:42:58;;;;;;;34.78;10.73;;;24.60;59.30;;;;;;4904617;28;90328;-90
2023/08/13 10:45:29;;;;;;;31.55;10.45;;;24.60;59.50;;;;;;4907214;28;90461;-96
2023/08/13 10:48:02;;;;;;;27.67;9.23;;;24.60;59.50;;;;;;4873574;28;87343;-93
2023/08/13 10:50:39;;;;;;;23.80;9.00;;;24.60;59.30;;;;;;4874719;28;89059;-91
2023/08/13 10:53:09;;;;;;;22.30;8.25;;;24.60;59.00;;;;;;4876249;28;89211;-93
2023/08/13 10:55:48;;;;;;;26.80;8.45;;;24.60;58.50;;;;;;4876958;28;88925;-89
2023/08/13 10:58:30;;;;;;;23.95;8.80;;;24.60;59.10;;;;;;4876650;28;87432;-92
2023/08/13 11:01:10;;;;;;;19.70;5.50;;;24.60;58.80;;;;;;4875881;28;87995;-91
2023/08/13 11:03:53;;;;;;;20.90;7.50;;;24.60;58.10;;;;;;4875189;28;89447;-89
2023/08/13 11:06:23;;;;;;;21.38;6.70;;;24.60;58.30;;;;;;4902539;28;91222;-91
2023/08/13 11:08:49;;;;;;;16.90;6.40;;;24.70;58.70;;;;;;4877731;28;87246;-93
2023/08/13 11:11:16;;;;;;;22.45;6.55;;;24.70;58.30;;;;;;4878375;28;86956;-94
2023/08/13 11:13:42;;;;;;;17.90;6.05;;;24.70;58.70;;;;;;4877984;28;88894;-95
2023/08/13 11:16:08;;;;;;;16.70;6.25;;;24.70;58.60;;;;;;4873006;28;89059;-89
2023/08/13 11:18:35;;;;;;;20.17;6.18;;;24.70;58.90;;;;;;4873988;28;87333;-90
2023/08/13 11:21:01;;;;;;;18.38;6.40;;;24.70;59.10;;;;;;4876977;28;87451;-91
2023/08/13 11:23:26;;;;;;;24.08;6.57;;;24.70;59.10;;;;;;4873513;28;90406;-92
2023/08/13 11:25:52;;;;;;;16.15;5.28;;;24.70;59.30;;;;;;4874727;28;90711;-92
2023/08/13 11:28:28;;;;;;;16.65;5.13;;;24.70;58.90;;;;;;4872541;28;89138;-91
2023/08/13 11:30:56;;;;;;;13.02;5.68;;;24.70;59.20;;;;;;4870852;28;88391;-92
2023/08/13 11:33:22;;;;;;;15.38;5.30;;;24.70;59.10;;;;;;4874001;28;87698;-92
2023/08/13 11:35:49;;;;;;;16.35;4.68;;;24.70;58.90;;;;;;4871618;28;90964;-92
2023/08/13 11:38:15;;;;;;;11.60;4.63;;;24.70;58.70;;;;;;4888127;28;87868;-91
2023/08/13 11:40:41;;;;;;;13.10;4.22;;;24.60;58.30;;;;;;4875139;28;87443;-92
2023/08/13 11:43:10;;;;;;;13.10;4.53;;;24.60;57.60;;;;;;4874255;28;87922;-90
2023/08/13 11:45:36;;;;;;;;;;;24.70;57.80;;;;;;4875990;28;86668;-91
2023/08/13 11:48:16;;;;;;;10.05;3.10;;;24.70;57.40;;;;;;4875374;28;87640;-91
2023/08/13 11:50:55;;;;;;;9.20;2.92;;;24.70;56.60;;;;;;4905027;28;92493;-90
2023/08/13 11:53:21;;;;;;;8.20;3.28;;;24.70;56.70;;;;;;4874470;28;89746;-90
2023/08/13 11:55:48;;;;;;;6.45;2.85;;;24.70;56.50;;;;;;4873341;28;91947;-95
2023/08/13 11:58:18;;;;;;;11.05;3.60;;;24.70;56.50;;;;;;4871411;28;87879;-96
2023/08/13 12:00:46;;;;;;;7.43;2.97;;;24.70;56.60;;;;;;4875901;28;89899;-89
2023/08/13 12:03:12;;;;;;;8.55;3.15;;;24.70;56.50;;;;;;4877130;28;88137;-94
2023/08/13 12:05:39;;;;;;;7.40;2.38;;;24.70;55.80;;;;;;4875908;28;87937;-89
2023/08/13 12:08:09;;;;;;;8.18;3.45;;;24.70;56.10;;;;;;4876115;28;87993;-92
2023/08/13 12:10:35;;;;;;;7.65;3.13;;;24.70;56.10;;;;;;4876573;28;90930;-91
2023/08/13 12:13:01;;;;;;;9.68;3.10;;;24.70;56.30;;;;;;4873636;28;89610;-94
2023/08/13 12:15:28;;;;;;;11.48;3.88;;;24.70;56.40;;;;;;4873615;28;88764;-91
2023/08/13 12:17:55;;;;;;;8.57;2.78;;;24.70;56.50;;;;;;4874157;28;88473;-95
2023/08/13 12:20:22;;;;;;;6.13;2.45;;;24.70;56.30;;;;;;4871646;28;87975;-90
2023/08/13 12:22:48;;;;;;;5.88;2.15;;;24.80;55.50;;;;;;4872313;28;88685;-95
2023/08/13 12:25:14;;;;;;;8.15;2.97;;;24.70;54.90;;;;;;4871063;28;87973;-90
2023/08/13 12:27:42;;;;;;;6.90;2.80;;;24.80;55.30;;;;;;4869889;28;87586;-92
2023/08/13 12:30:08;;;;;;;6.88;2.25;;;24.80;55.90;;;;;;4872837;28;87538;-92
2023/08/13 12:32:34;;;;;;;8.75;2.80;;;24.70;55.70;;;;;;4874256;28;90048;-96
2023/08/13 12:34:59;;;;;;;6.63;2.60;;;24.80;55.90;;;;;;4874045;28;87953;-94
2023/08/13 12:37:25;;;;;;;6.97;2.60;;;24.80;56.10;;;;;;4904282;28;87668;-94
2023/08/13 12:39:51;;;;;;;6.03;2.42;;;24.80;56.10;;;;;;4871405;28;87866;-94
2023/08/13 12:42:17;;;;;;;8.00;2.90;;;24.80;56.10;;;;;;4870702;28;88918;-90
2023/08/13 12:44:43;;;;;;;9.90;2.95;;;24.80;56.00;;;;;;4867644;28;91135;-91
2023/08/13 12:47:09;;;;;;;9.02;2.65;;;24.90;56.60;;;;;;4867851;28;87961;-91